EDT,Max TemperatureF,Mean TemperatureF,Min TemperatureF,Max Dew PointF,MeanDew PointF,Min DewpointF,Max Humidity, Mean Humidity, Min Humidity, Max Sea Level PressureIn, Mean Sea Level PressureIn, Min Sea Level PressureIn, Max VisibilityMiles, Mean VisibilityMiles, Min VisibilityMiles, Max Wind SpeedMPH, Mean Wind SpeedMPH, Max Gust SpeedMPH,PrecipitationIn, CloudCover, Events, WindDirDegrees
2013-8-1,70,67,64,68,66,64,100,95,88,30.02,29.89,29.83,10,3,1,9,2,16,0.69,8,Rain,152
2013-8-2,82,72,61,68,64,59,100,86,44,29.91,29.85,29.79,10,4,0,7,1,,0.01,3,Fog,308
2013-8-3,77,70,62,68,64,61,100,89,66,29.91,29.89,29.85,10,6,1,6,0,,0.06,3,Rain,0
2013-8-4,80,68,57,63,59,52,100,82,38,29.99,29.88,29.86,10,6,0,14,2,21,0.01,2,Fog,321
2013-8-5,79,64,51,61,52,45,96,70,32,30.07,30.02,29.98,10,10,2,10,2,16,0.01,0,,340
2013-8-6,81,68,55,63,58,52,97,72,39,30.11,30.08,30.04,10,10,10,10,1,,0.00,4,,177
2013-8-7,79,71,64,68,66,63,100,84,66,30.12,30.09,30.04,10,10,8,9,2,,0.00,8,Rain,161
2013-8-8,84,76,69,75,71,67,100,90,66,30.05,30.01,29.98,10,5,0,8,1,17,0.46,6,Fog-Rain,162
2013-8-9,86,78,72,76,73,71,100,89,69,29.98,29.87,29.80,10,7,1,10,3,16,0.05,5,Rain,172
2013-8-10,84,74,64,72,66,59,100,86,47,30.05,29.96,29.87,10,4,0,8,1,,0.01,2,Fog,305
2013-8-11,82,70,57,68,60,55,97,75,42,30.12,30.07,30.01,10,9,2,8,1,,0.01,2,Rain,313
2013-8-12,84,74,66,67,64,59,94,79,44,30.02,29.98,29.92,10,9,2,7,1,,0.16,5,Rain,6
2013-8-13,82,72,64,70,66,64,100,88,68,29.90,29.79,29.69,10,6,0,9,0,,0.85,6,Fog-Rain,349
2013-8-14,75,64,55,65,52,47,96,65,41,30.06,29.89,29.78,10,10,5,16,6,28,0.01,1,,324
2013-8-15,77,64,50,58,51,44,97,70,33,30.14,30.10,30.06,10,10,10,8,1,,0.00,1,,308
2013-8-16,81,66,51,61,54,49,97,73,35,30.20,30.15,30.13,10,9,2,5,1,,0.01,0,,340
2013-8-17,82,68,54,63,57,52,97,73,36,30.27,30.24,30.20,10,9,3,5,0,,0.01,1,,245
2013-8-18,77,68,61,66,62,59,100,84,56,30.25,30.18,30.13,10,7,0,7,1,,0.00,1,Fog-Rain,348
2013-8-19,78,67,59,65,61,57,100,92,57,30.14,30.10,30.04,10,3,0,4,0,,0.01,4,Fog,-1
2013-8-20,88,72,57,69,61,57,100,88,44,30.13,30.08,30.05,10,4,0,4,0,,0.00,2,Fog,290
2013-8-21,88,74,60,69,62,59,100,86,40,30.18,30.13,30.04,10,4,0,6,0,,0.01,0,Fog,310
2013-8-22,80,73,66,73,69,66,100,94,74,30.06,29.97,29.88,10,4,0,23,2,36,1.45,5,Fog-Rain,87
2013-8-23,81,72,64,66,63,50,100,81,35,30.09,29.95,29.88,10,6,1,10,2,,0.01,1,,339
2013-8-24,81,68,55,58,53,46,93,65,29,30.35,30.25,30.12,10,10,10,8,3,,0.00,0,,10
2013-8-25,82,67,53,60,55,51,100,77,38,30.40,30.32,30.24,10,9,1,7,1,,0.01,0,,310
2013-8-26,82,70,59,70,64,58,96,81,58,30.23,30.06,29.92,10,8,2,6,1,,0.03,2,Rain,223
2013-8-27,88,78,68,71,68,65,100,77,46,29.92,29.87,29.83,10,8,2,10,3,,0.06,3,Rain,321
2013-8-28,79,72,66,73,70,64,100,94,82,29.88,29.86,29.84,10,4,0,5,0,,0.46,4,Fog-Rain,15
2013-8-29,81,74,66,70,68,66,100,91,60,30.00,29.93,29.88,10,4,0,4,1,,0.03,6,Fog-Rain,31
2013-8-30,82,75,68,71,68,66,100,91,62,30.01,29.92,29.86,10,6,1,5,1,,0.00,3,Rain,150
2013-8-31,86,75,66,74,69,66,100,90,67,29.87,29.84,29.78,10,4,0,9,1,,0.01,4,Fog,182